sim
Sign-in with your pilot id or email,
or register
Callsign
Passwort

Schedule Details

Flight Number: OEO1513
Departure: Berlin Tegel Airport (EDDT) at 05:35
Arrival: Munich Airport (EDDM) at 06:50

Weather Information
Getting current METAR information for EDDT 191450Z 09008KT 050V130 CAVOK 21/02 Q1021 NOSIG
Getting current METAR information for EDDM 191450Z 05004KT 020V080 CAVOK 22/12 Q1018 NOSIG

Schedule Frequency

Route Map